sensor_id;sensor_type;location;lat;lon;timestamp;P1;durP1;ratioP1;P2;durP2;ratioP2
61897;SDS011;47850;50.274;18.908;2022-12-16T00:01:05;58.60;;;21.50;;
61897;SDS011;47850;50.274;18.908;2022-12-16T00:03:32;54.00;;;21.80;;
61897;SDS011;47850;50.274;18.908;2022-12-16T00:05:58;62.10;;;23.50;;
61897;SDS011;47850;50.274;18.908;2022-12-16T00:08:24;48.40;;;20.60;;
61897;SDS011;47850;50.274;18.908;2022-12-16T00:10:49;64.00;;;25.10;;
61897;SDS011;47850;50.274;18.908;2022-12-16T00:13:18;65.40;;;26.30;;
61897;SDS011;47850;50.274;18.908;2022-12-16T00:15:44;62.50;;;23.90;;
61897;SDS011;47850;50.274;18.908;2022-12-16T00:18:11;62.30;;;23.80;;
61897;SDS011;47850;50.274;18.908;2022-12-16T00:20:42;60.30;;;22.50;;
61897;SDS011;47850;50.274;18.908;2022-12-16T00:23:08;57.00;;;22.30;;
61897;SDS011;47850;50.274;18.908;2022-12-16T00:25:34;88.10;;;32.70;;
61897;SDS011;47850;50.274;18.908;2022-12-16T00:27:59;75.60;;;30.20;;
61897;SDS011;47850;50.274;18.908;2022-12-16T00:30:24;79.00;;;26.60;;
61897;SDS011;47850;50.274;18.908;2022-12-16T00:32:50;77.60;;;27.60;;
61897;SDS011;47850;50.274;18.908;2022-12-16T00:35:15;79.70;;;26.50;;
61897;SDS011;47850;50.274;18.908;2022-12-16T00:37:41;74.60;;;28.40;;
61897;SDS011;47850;50.274;18.908;2022-12-16T00:40:06;59.50;;;24.10;;
61897;SDS011;47850;50.274;18.908;2022-12-16T00:42:32;53.10;;;21.70;;
61897;SDS011;47850;50.274;18.908;2022-12-16T00:44:58;75.20;;;29.80;;
61897;SDS011;47850;50.274;18.908;2022-12-16T00:47:23;63.80;;;26.30;;
61897;SDS011;47850;50.274;18.908;2022-12-16T00:49:49;74.40;;;30.60;;
61897;SDS011;47850;50.274;18.908;2022-12-16T00:52:14;71.40;;;27.50;;
61897;SDS011;47850;50.274;18.908;2022-12-16T00:54:39;58.00;;;22.20;;
61897;SDS011;47850;50.274;18.908;2022-12-16T00:57:05;81.50;;;31.40;;
61897;SDS011;47850;50.274;18.908;2022-12-16T00:59:30;68.00;;;25.90;;
61897;SDS011;47850;50.274;18.908;2022-12-16T01:01:56;55.40;;;23.80;;
61897;SDS011;47850;50.274;18.908;2022-12-16T01:04:21;73.10;;;26.80;;
61897;SDS011;47850;50.274;18.908;2022-12-16T01:06:46;65.20;;;25.60;;
61897;SDS011;47850;50.274;18.908;2022-12-16T01:09:12;64.20;;;27.20;;
61897;SDS011;47850;50.274;18.908;2022-12-16T01:11:37;61.20;;;23.50;;
61897;SDS011;47850;50.274;18.908;2022-12-16T01:14:03;67.30;;;25.00;;
61897;SDS011;47850;50.274;18.908;2022-12-16T01:16:28;66.50;;;25.40;;
61897;SDS011;47850;50.274;18.908;2022-12-16T01:18:54;60.90;;;25.40;;
61897;SDS011;47850;50.274;18.908;2022-12-16T01:21:20;53.20;;;20.90;;
61897;SDS011;47850;50.274;18.908;2022-12-16T01:23:46;63.30;;;24.30;;
61897;SDS011;47850;50.274;18.908;2022-12-16T01:26:14;65.80;;;26.60;;
61897;SDS011;47850;50.274;18.908;2022-12-16T01:28:41;65.20;;;24.80;;
61897;SDS011;47850;50.274;18.908;2022-12-16T01:31:06;46.10;;;18.80;;
61897;SDS011;47850;50.274;18.908;2022-12-16T01:33:32;38.20;;;15.80;;
61897;SDS011;47850;50.274;18.908;2022-12-16T01:35:58;60.00;;;21.40;;
61897;SDS011;47850;50.274;18.908;2022-12-16T01:38:28;43.90;;;19.30;;
61897;SDS011;47850;50.274;18.908;2022-12-16T01:40:54;56.00;;;21.10;;
61897;SDS011;47850;50.274;18.908;2022-12-16T01:43:22;56.80;;;22.60;;
61897;SDS011;47850;50.274;18.908;2022-12-16T01:45:57;69.90;;;24.60;;
61897;SDS011;47850;50.274;18.908;2022-12-16T01:49:03;64.50;;;23.60;;
61897;SDS011;47850;50.274;18.908;2022-12-16T01:51:35;53.50;;;21.10;;
61897;SDS011;47850;50.274;18.908;2022-12-16T01:54:14;52.10;;;20.40;;
61897;SDS011;47850;50.274;18.908;2022-12-16T01:56:44;57.50;;;23.00;;
61897;SDS011;47850;50.274;18.908;2022-12-16T01:59:16;49.30;;;19.20;;
61897;SDS011;47850;50.274;18.908;2022-12-16T02:01:44;70.10;;;25.40;;
61897;SDS011;47850;50.274;18.908;2022-12-16T02:04:09;34.70;;;14.80;;
61897;SDS011;47850;50.274;18.908;2022-12-16T02:06:35;62.70;;;25.70;;
61897;SDS011;47850;50.274;18.908;2022-12-16T02:09:01;82.00;;;29.30;;
61897;SDS011;47850;50.274;18.908;2022-12-16T02:14:15;61.10;;;22.90;;
61897;SDS011;47850;50.274;18.908;2022-12-16T02:25:14;57.20;;;22.10;;
61897;SDS011;47850;50.274;18.908;2022-12-16T02:38:27;52.10;;;18.80;;
61897;SDS011;47850;50.274;18.908;2022-12-16T02:41:04;67.60;;;25.10;;
61897;SDS011;47850;50.274;18.908;2022-12-16T02:43:50;56.00;;;23.70;;
61897;SDS011;47850;50.274;18.908;2022-12-16T02:46:21;64.80;;;23.90;;
61897;SDS011;47850;50.274;18.908;2022-12-16T02:48:50;57.20;;;23.10;;
61897;SDS011;47850;50.274;18.908;2022-12-16T02:51:15;77.20;;;27.00;;
61897;SDS011;47850;50.274;18.908;2022-12-16T02:53:42;81.80;;;28.90;;
61897;SDS011;47850;50.274;18.908;2022-12-16T03:02:04;65.00;;;24.70;;
61897;SDS011;47850;50.274;18.908;2022-12-16T03:07:16;59.00;;;23.00;;
61897;SDS011;47850;50.274;18.908;2022-12-16T03:09:46;66.80;;;24.50;;
61897;SDS011;47850;50.274;18.908;2022-12-16T03:12:13;62.90;;;24.60;;
61897;SDS011;47850;50.274;18.908;2022-12-16T03:14:42;52.60;;;20.50;;
61897;SDS011;47850;50.274;18.908;2022-12-16T03:17:12;63.30;;;24.30;;
61897;SDS011;47850;50.274;18.908;2022-12-16T03:19:40;64.40;;;27.40;;
61897;SDS011;47850;50.274;18.908;2022-12-16T03:24:47;52.60;;;20.90;;
61897;SDS011;47850;50.274;18.908;2022-12-16T03:27:17;63.80;;;23.50;;
61897;SDS011;47850;50.274;18.908;2022-12-16T03:29:58;67.50;;;25.20;;
61897;SDS011;47850;50.274;18.908;2022-12-16T03:32:37;67.40;;;25.10;;
61897;SDS011;47850;50.274;18.908;2022-12-16T03:37:40;115.10;;;30.70;;
61897;SDS011;47850;50.274;18.908;2022-12-16T03:40:08;74.10;;;25.60;;
61897;SDS011;47850;50.274;18.908;2022-12-16T03:42:35;62.80;;;22.70;;
61897;SDS011;47850;50.274;18.908;2022-12-16T03:45:04;61.70;;;23.20;;
61897;SDS011;47850;50.274;18.908;2022-12-16T03:47:32;61.20;;;24.20;;
61897;SDS011;47850;50.274;18.908;2022-12-16T03:49:58;57.40;;;23.00;;
61897;SDS011;47850;50.274;18.908;2022-12-16T03:52:23;67.50;;;24.40;;
61897;SDS011;47850;50.274;18.908;2022-12-16T03:54:49;52.50;;;19.40;;
61897;SDS011;47850;50.274;18.908;2022-12-16T03:57:14;59.60;;;24.40;;
61897;SDS011;47850;50.274;18.908;2022-12-16T03:59:40;65.60;;;24.60;;
61897;SDS011;47850;50.274;18.908;2022-12-16T04:02:05;55.70;;;22.40;;
61897;SDS011;47850;50.274;18.908;2022-12-16T04:04:30;57.70;;;23.90;;
61897;SDS011;47850;50.274;18.908;2022-12-16T04:06:56;62.10;;;23.90;;
61897;SDS011;47850;50.274;18.908;2022-12-16T04:09:40;86.40;;;33.90;;
61897;SDS011;47850;50.274;18.908;2022-12-16T04:12:07;59.90;;;22.40;;
61897;SDS011;47850;50.274;18.908;2022-12-16T04:14:51;65.90;;;26.40;;
61897;SDS011;47850;50.274;18.908;2022-12-16T04:17:36;65.50;;;23.50;;
61897;SDS011;47850;50.274;18.908;2022-12-16T04:20:20;52.00;;;21.60;;
61897;SDS011;47850;50.274;18.908;2022-12-16T04:23:11;60.30;;;23.40;;
61897;SDS011;47850;50.274;18.908;2022-12-16T04:25:55;43.60;;;19.10;;
61897;SDS011;47850;50.274;18.908;2022-12-16T04:28:21;53.20;;;22.00;;
61897;SDS011;47850;50.274;18.908;2022-12-16T04:30:46;63.40;;;25.00;;
61897;SDS011;47850;50.274;18.908;2022-12-16T04:33:12;88.20;;;35.00;;
61897;SDS011;47850;50.274;18.908;2022-12-16T04:35:58;98.60;;;36.30;;
61897;SDS011;47850;50.274;18.908;2022-12-16T04:38:42;73.30;;;28.40;;
61897;SDS011;47850;50.274;18.908;2022-12-16T04:41:26;68.60;;;26.30;;
61897;SDS011;47850;50.274;18.908;2022-12-16T04:44:10;60.60;;;24.80;;
61897;SDS011;47850;50.274;18.908;2022-12-16T04:46:54;64.90;;;24.00;;
61897;SDS011;47850;50.274;18.908;2022-12-16T04:49:38;55.30;;;22.40;;
61897;SDS011;47850;50.274;18.908;2022-12-16T04:52:22;62.40;;;23.70;;
61897;SDS011;47850;50.274;18.908;2022-12-16T04:55:08;71.90;;;26.80;;
61897;SDS011;47850;50.274;18.908;2022-12-16T04:57:53;70.60;;;27.40;;
61897;SDS011;47850;50.274;18.908;2022-12-16T05:00:38;64.90;;;24.80;;
61897;SDS011;47850;50.274;18.908;2022-12-16T05:03:23;72.10;;;29.00;;
61897;SDS011;47850;50.274;18.908;2022-12-16T05:06:07;65.40;;;29.80;;
61897;SDS011;47850;50.274;18.908;2022-12-16T05:08:51;52.50;;;22.50;;
61897;SDS011;47850;50.274;18.908;2022-12-16T05:11:36;78.30;;;34.50;;
61897;SDS011;47850;50.274;18.908;2022-12-16T05:14:20;79.60;;;35.90;;
61897;SDS011;47850;50.274;18.908;2022-12-16T05:17:04;65.80;;;28.40;;
61897;SDS011;47850;50.274;18.908;2022-12-16T05:19:48;49.40;;;22.20;;
61897;SDS011;47850;50.274;18.908;2022-12-16T05:22:33;56.50;;;23.60;;
61897;SDS011;47850;50.274;18.908;2022-12-16T05:25:17;58.70;;;25.20;;
61897;SDS011;47850;50.274;18.908;2022-12-16T05:28:01;56.60;;;25.30;;
61897;SDS011;47850;50.274;18.908;2022-12-16T05:30:45;48.60;;;20.50;;
61897;SDS011;47850;50.274;18.908;2022-12-16T05:33:30;50.10;;;22.70;;
61897;SDS011;47850;50.274;18.908;2022-12-16T05:36:14;60.90;;;24.80;;
61897;SDS011;47850;50.274;18.908;2022-12-16T05:38:58;59.80;;;25.80;;
61897;SDS011;47850;50.274;18.908;2022-12-16T05:41:42;52.60;;;23.50;;
61897;SDS011;47850;50.274;18.908;2022-12-16T05:44:26;58.00;;;26.40;;
61897;SDS011;47850;50.274;18.908;2022-12-16T05:47:10;54.80;;;23.10;;
61897;SDS011;47850;50.274;18.908;2022-12-16T05:49:54;68.10;;;25.90;;
61897;SDS011;47850;50.274;18.908;2022-12-16T05:52:39;42.60;;;18.20;;
61897;SDS011;47850;50.274;18.908;2022-12-16T05:55:23;50.80;;;22.70;;
61897;SDS011;47850;50.274;18.908;2022-12-16T05:58:07;91.20;;;36.40;;
61897;SDS011;47850;50.274;18.908;2022-12-16T06:00:52;75.10;;;32.00;;
61897;SDS011;47850;50.274;18.908;2022-12-16T06:03:37;59.20;;;26.40;;
61897;SDS011;47850;50.274;18.908;2022-12-16T06:06:20;56.20;;;23.40;;
61897;SDS011;47850;50.274;18.908;2022-12-16T06:09:05;66.20;;;26.00;;
61897;SDS011;47850;50.274;18.908;2022-12-16T06:11:49;120.80;;;41.60;;
61897;SDS011;47850;50.274;18.908;2022-12-16T06:14:33;89.80;;;29.90;;
61897;SDS011;47850;50.274;18.908;2022-12-16T06:17:18;71.90;;;29.60;;
61897;SDS011;47850;50.274;18.908;2022-12-16T06:20:03;132.70;;;46.30;;
61897;SDS011;47850;50.274;18.908;2022-12-16T06:22:51;53.40;;;23.60;;
61897;SDS011;47850;50.274;18.908;2022-12-16T06:25:36;56.70;;;24.90;;
61897;SDS011;47850;50.274;18.908;2022-12-16T06:28:20;84.90;;;34.20;;
61897;SDS011;47850;50.274;18.908;2022-12-16T06:31:05;40.30;;;16.00;;
61897;SDS011;47850;50.274;18.908;2022-12-16T06:33:50;65.70;;;23.80;;
61897;SDS011;47850;50.274;18.908;2022-12-16T06:36:34;65.60;;;24.90;;
61897;SDS011;47850;50.274;18.908;2022-12-16T06:39:18;115.90;;;39.80;;
61897;SDS011;47850;50.274;18.908;2022-12-16T06:42:02;92.60;;;31.00;;
61897;SDS011;47850;50.274;18.908;2022-12-16T06:44:46;79.30;;;28.30;;
61897;SDS011;47850;50.274;18.908;2022-12-16T06:47:30;67.70;;;25.50;;
61897;SDS011;47850;50.274;18.908;2022-12-16T06:50:14;70.30;;;26.70;;
61897;SDS011;47850;50.274;18.908;2022-12-16T06:52:59;67.00;;;26.00;;
61897;SDS011;47850;50.274;18.908;2022-12-16T06:55:43;71.10;;;25.60;;
61897;SDS011;47850;50.274;18.908;2022-12-16T06:58:28;87.80;;;28.00;;
61897;SDS011;47850;50.274;18.908;2022-12-16T07:01:12;96.50;;;30.50;;
61897;SDS011;47850;50.274;18.908;2022-12-16T07:03:56;80.30;;;29.10;;
61897;SDS011;47850;50.274;18.908;2022-12-16T07:06:40;61.00;;;24.30;;
61897;SDS011;47850;50.274;18.908;2022-12-16T07:09:24;70.70;;;28.00;;
61897;SDS011;47850;50.274;18.908;2022-12-16T07:12:08;75.00;;;29.30;;
61897;SDS011;47850;50.274;18.908;2022-12-16T07:14:52;63.50;;;25.90;;
61897;SDS011;47850;50.274;18.908;2022-12-16T07:17:38;78.00;;;29.80;;
61897;SDS011;47850;50.274;18.908;2022-12-16T07:20:23;57.40;;;24.60;;
61897;SDS011;47850;50.274;18.908;2022-12-16T07:23:07;75.30;;;27.10;;
61897;SDS011;47850;50.274;18.908;2022-12-16T07:25:52;63.20;;;27.20;;
61897;SDS011;47850;50.274;18.908;2022-12-16T07:28:36;56.50;;;22.40;;
61897;SDS011;47850;50.274;18.908;2022-12-16T07:31:34;72.20;;;28.20;;
61897;SDS011;47850;50.274;18.908;2022-12-16T07:34:18;82.00;;;31.10;;
61897;SDS011;47850;50.274;18.908;2022-12-16T07:37:02;78.70;;;31.90;;
61897;SDS011;47850;50.274;18.908;2022-12-16T07:39:47;68.40;;;29.10;;
61897;SDS011;47850;50.274;18.908;2022-12-16T07:42:31;133.40;;;44.30;;
61897;SDS011;47850;50.274;18.908;2022-12-16T07:45:15;134.40;;;43.00;;
61897;SDS011;47850;50.274;18.908;2022-12-16T07:47:59;140.60;;;56.80;;
61897;SDS011;47850;50.274;18.908;2022-12-16T07:50:43;119.70;;;41.30;;
61897;SDS011;47850;50.274;18.908;2022-12-16T07:53:27;86.60;;;31.00;;
61897;SDS011;47850;50.274;18.908;2022-12-16T07:56:12;138.30;;;49.60;;
61897;SDS011;47850;50.274;18.908;2022-12-16T07:58:57;79.20;;;29.90;;
61897;SDS011;47850;50.274;18.908;2022-12-16T08:01:40;115.60;;;40.50;;
61897;SDS011;47850;50.274;18.908;2022-12-16T08:04:25;237.90;;;67.00;;
61897;SDS011;47850;50.274;18.908;2022-12-16T08:07:09;109.70;;;33.10;;
61897;SDS011;47850;50.274;18.908;2022-12-16T08:09:53;96.50;;;34.40;;
61897;SDS011;47850;50.274;18.908;2022-12-16T08:12:37;99.60;;;34.60;;
61897;SDS011;47850;50.274;18.908;2022-12-16T08:15:21;67.60;;;25.40;;
61897;SDS011;47850;50.274;18.908;2022-12-16T08:18:05;85.70;;;33.20;;
61897;SDS011;47850;50.274;18.908;2022-12-16T08:20:49;71.20;;;27.30;;
61897;SDS011;47850;50.274;18.908;2022-12-16T08:23:33;100.10;;;38.30;;
61897;SDS011;47850;50.274;18.908;2022-12-16T08:26:17;94.10;;;37.80;;
61897;SDS011;47850;50.274;18.908;2022-12-16T08:29:02;69.10;;;28.40;;
61897;SDS011;47850;50.274;18.908;2022-12-16T08:31:46;66.80;;;29.30;;
61897;SDS011;47850;50.274;18.908;2022-12-16T08:34:30;56.70;;;27.60;;
61897;SDS011;47850;50.274;18.908;2022-12-16T08:37:14;58.70;;;24.70;;
61897;SDS011;47850;50.274;18.908;2022-12-16T08:39:58;59.10;;;24.40;;
61897;SDS011;47850;50.274;18.908;2022-12-16T08:42:42;58.30;;;25.70;;
61897;SDS011;47850;50.274;18.908;2022-12-16T08:45:27;67.10;;;27.50;;
61897;SDS011;47850;50.274;18.908;2022-12-16T08:48:12;62.30;;;27.40;;
61897;SDS011;47850;50.274;18.908;2022-12-16T08:51:00;96.10;;;41.40;;
61897;SDS011;47850;50.274;18.908;2022-12-16T08:53:46;68.40;;;33.10;;
61897;SDS011;47850;50.274;18.908;2022-12-16T08:56:30;55.00;;;25.90;;
61897;SDS011;47850;50.274;18.908;2022-12-16T08:59:14;80.00;;;33.90;;
61897;SDS011;47850;50.274;18.908;2022-12-16T09:01:59;65.10;;;25.70;;
61897;SDS011;47850;50.274;18.908;2022-12-16T09:04:43;71.20;;;29.30;;
61897;SDS011;47850;50.274;18.908;2022-12-16T09:07:27;57.40;;;24.30;;
61897;SDS011;47850;50.274;18.908;2022-12-16T09:10:12;61.30;;;27.50;;
61897;SDS011;47850;50.274;18.908;2022-12-16T09:13:09;76.80;;;35.50;;
61897;SDS011;47850;50.274;18.908;2022-12-16T09:15:55;65.90;;;32.00;;
61897;SDS011;47850;50.274;18.908;2022-12-16T09:18:40;71.90;;;33.10;;
61897;SDS011;47850;50.274;18.908;2022-12-16T09:21:24;118.90;;;41.80;;
61897;SDS011;47850;50.274;18.908;2022-12-16T09:24:08;75.70;;;31.00;;
61897;SDS011;47850;50.274;18.908;2022-12-16T09:26:52;201.90;;;65.20;;
61897;SDS011;47850;50.274;18.908;2022-12-16T09:29:37;140.00;;;43.90;;
61897;SDS011;47850;50.274;18.908;2022-12-16T09:32:20;69.30;;;28.70;;
61897;SDS011;47850;50.274;18.908;2022-12-16T09:35:05;97.90;;;37.90;;
61897;SDS011;47850;50.274;18.908;2022-12-16T09:37:49;227.60;;;62.40;;
61897;SDS011;47850;50.274;18.908;2022-12-16T09:40:34;243.90;;;66.30;;
61897;SDS011;47850;50.274;18.908;2022-12-16T09:46:17;365.80;;;104.30;;
61897;SDS011;47850;50.274;18.908;2022-12-16T09:52:28;279.90;;;86.80;;
61897;SDS011;47850;50.274;18.908;2022-12-16T09:55:21;240.10;;;82.80;;
61897;SDS011;47850;50.274;18.908;2022-12-16T09:58:17;209.60;;;73.40;;
61897;SDS011;47850;50.274;18.908;2022-12-16T10:01:07;188.10;;;62.50;;
61897;SDS011;47850;50.274;18.908;2022-12-16T10:03:54;189.80;;;75.80;;
61897;SDS011;47850;50.274;18.908;2022-12-16T10:06:45;130.80;;;46.40;;
61897;SDS011;47850;50.274;18.908;2022-12-16T10:09:56;112.50;;;40.80;;
61897;SDS011;47850;50.274;18.908;2022-12-16T10:13:06;90.30;;;37.30;;
61897;SDS011;47850;50.274;18.908;2022-12-16T10:22:06;80.50;;;32.90;;
61897;SDS011;47850;50.274;18.908;2022-12-16T10:25:34;82.70;;;36.40;;
61897;SDS011;47850;50.274;18.908;2022-12-16T10:31:25;81.20;;;36.00;;
61897;SDS011;47850;50.274;18.908;2022-12-16T10:34:10;85.70;;;36.50;;
61897;SDS011;47850;50.274;18.908;2022-12-16T10:36:58;92.50;;;41.90;;
61897;SDS011;47850;50.274;18.908;2022-12-16T10:39:45;97.60;;;40.50;;
61897;SDS011;47850;50.274;18.908;2022-12-16T10:45:56;75.80;;;35.30;;
61897;SDS011;47850;50.274;18.908;2022-12-16T10:48:42;76.40;;;34.70;;
61897;SDS011;47850;50.274;18.908;2022-12-16T10:51:27;67.50;;;31.80;;
61897;SDS011;47850;50.274;18.908;2022-12-16T11:00:44;57.10;;;27.00;;
61897;SDS011;47850;50.274;18.908;2022-12-16T11:03:31;59.10;;;26.30;;
61897;SDS011;47850;50.274;18.908;2022-12-16T11:06:26;59.50;;;28.30;;
61897;SDS011;47850;50.274;18.908;2022-12-16T11:09:21;60.20;;;27.80;;
61897;SDS011;47850;50.274;18.908;2022-12-16T11:12:21;216.40;;;74.20;;
61897;SDS011;47850;50.274;18.908;2022-12-16T11:15:24;199.00;;;62.90;;
61897;SDS011;47850;50.274;18.908;2022-12-16T11:18:11;153.50;;;50.20;;
61897;SDS011;47850;50.274;18.908;2022-12-16T11:24:19;66.70;;;31.20;;
61897;SDS011;47850;50.274;18.908;2022-12-16T11:27:04;67.40;;;31.50;;
61897;SDS011;47850;50.274;18.908;2022-12-16T11:29:56;69.50;;;33.30;;
61897;SDS011;47850;50.274;18.908;2022-12-16T11:32:43;66.50;;;33.10;;
61897;SDS011;47850;50.274;18.908;2022-12-16T11:35:39;70.60;;;34.20;;
61897;SDS011;47850;50.274;18.908;2022-12-16T11:38:27;103.00;;;41.70;;
61897;SDS011;47850;50.274;18.908;2022-12-16T11:41:21;68.80;;;31.80;;
61897;SDS011;47850;50.274;18.908;2022-12-16T11:44:26;70.10;;;30.60;;
61897;SDS011;47850;50.274;18.908;2022-12-16T11:50:31;67.00;;;30.20;;
61897;SDS011;47850;50.274;18.908;2022-12-16T11:56:54;70.00;;;30.80;;
61897;SDS011;47850;50.274;18.908;2022-12-16T11:59:41;72.20;;;30.20;;
61897;SDS011;47850;50.274;18.908;2022-12-16T12:02:35;55.60;;;25.10;;
61897;SDS011;47850;50.274;18.908;2022-12-16T12:05:30;58.60;;;27.50;;
61897;SDS011;47850;50.274;18.908;2022-12-16T12:08:37;51.60;;;24.40;;
61897;SDS011;47850;50.274;18.908;2022-12-16T12:11:27;54.40;;;24.10;;
61897;SDS011;47850;50.274;18.908;2022-12-16T12:22:53;65.20;;;27.50;;
61897;SDS011;47850;50.274;18.908;2022-12-16T12:25:48;62.10;;;26.10;;
61897;SDS011;47850;50.274;18.908;2022-12-16T12:28:45;56.90;;;25.60;;
61897;SDS011;47850;50.274;18.908;2022-12-16T12:34:52;123.70;;;37.50;;
61897;SDS011;47850;50.274;18.908;2022-12-16T12:37:45;69.20;;;29.20;;
61897;SDS011;47850;50.274;18.908;2022-12-16T12:41:13;69.10;;;30.10;;
61897;SDS011;47850;50.274;18.908;2022-12-16T12:47:27;79.90;;;33.80;;
61897;SDS011;47850;50.274;18.908;2022-12-16T12:53:43;118.60;;;46.60;;
61897;SDS011;47850;50.274;18.908;2022-12-16T12:56:53;81.50;;;36.10;;
61897;SDS011;47850;50.274;18.908;2022-12-16T13:03:03;51.80;;;23.50;;
61897;SDS011;47850;50.274;18.908;2022-12-16T13:06:00;62.30;;;28.10;;
61897;SDS011;47850;50.274;18.908;2022-12-16T13:11:33;69.10;;;29.80;;
61897;SDS011;47850;50.274;18.908;2022-12-16T13:20:41;75.00;;;31.40;;
61897;SDS011;47850;50.274;18.908;2022-12-16T13:26:10;80.20;;;34.30;;
61897;SDS011;47850;50.274;18.908;2022-12-16T13:29:05;82.70;;;32.20;;
61897;SDS011;47850;50.274;18.908;2022-12-16T13:34:59;83.40;;;33.50;;
61897;SDS011;47850;50.274;18.908;2022-12-16T13:38:00;74.50;;;32.20;;
61897;SDS011;47850;50.274;18.908;2022-12-16T13:43:50;93.10;;;36.20;;
61897;SDS011;47850;50.274;18.908;2022-12-16T13:49:50;86.40;;;35.50;;
61897;SDS011;47850;50.274;18.908;2022-12-16T13:55:32;89.40;;;38.50;;
61897;SDS011;47850;50.274;18.908;2022-12-16T14:01:15;95.80;;;39.10;;
61897;SDS011;47850;50.274;18.908;2022-12-16T14:04:07;105.50;;;39.00;;
61897;SDS011;47850;50.274;18.908;2022-12-16T14:06:54;94.20;;;37.10;;
61897;SDS011;47850;50.274;18.908;2022-12-16T14:09:43;92.10;;;37.40;;
61897;SDS011;47850;50.274;18.908;2022-12-16T14:12:42;100.10;;;39.70;;
61897;SDS011;47850;50.274;18.908;2022-12-16T14:15:30;99.40;;;40.10;;
61897;SDS011;47850;50.274;18.908;2022-12-16T14:21:21;123.50;;;44.80;;
61897;SDS011;47850;50.274;18.908;2022-12-16T14:24:45;104.10;;;41.70;;
61897;SDS011;47850;50.274;18.908;2022-12-16T14:27:22;109.50;;;40.70;;
61897;SDS011;47850;50.274;18.908;2022-12-16T14:30:18;105.70;;;40.10;;
61897;SDS011;47850;50.274;18.908;2022-12-16T14:33:21;107.60;;;38.60;;
61897;SDS011;47850;50.274;18.908;2022-12-16T14:36:23;91.70;;;37.10;;
61897;SDS011;47850;50.274;18.908;2022-12-16T14:39:10;117.20;;;43.00;;
61897;SDS011;47850;50.274;18.908;2022-12-16T14:42:18;113.00;;;41.60;;
61897;SDS011;47850;50.274;18.908;2022-12-16T14:54:15;100.20;;;39.90;;
61897;SDS011;47850;50.274;18.908;2022-12-16T14:57:02;99.20;;;39.10;;
61897;SDS011;47850;50.274;18.908;2022-12-16T14:59:58;107.40;;;41.30;;
61897;SDS011;47850;50.274;18.908;2022-12-16T15:02:43;105.50;;;40.70;;
61897;SDS011;47850;50.274;18.908;2022-12-16T15:05:31;108.00;;;40.50;;
61897;SDS011;47850;50.274;18.908;2022-12-16T15:08:17;103.80;;;42.20;;
61897;SDS011;47850;50.274;18.908;2022-12-16T15:11:03;105.20;;;39.30;;
61897;SDS011;47850;50.274;18.908;2022-12-16T15:13:53;94.70;;;38.20;;
61897;SDS011;47850;50.274;18.908;2022-12-16T15:16:44;97.30;;;39.70;;
61897;SDS011;47850;50.274;18.908;2022-12-16T15:19:45;96.30;;;38.90;;
61897;SDS011;47850;50.274;18.908;2022-12-16T15:22:34;92.20;;;35.90;;
61897;SDS011;47850;50.274;18.908;2022-12-16T15:25:19;102.70;;;39.30;;
61897;SDS011;47850;50.274;18.908;2022-12-16T15:28:20;99.50;;;38.20;;
61897;SDS011;47850;50.274;18.908;2022-12-16T15:31:14;102.40;;;37.60;;
61897;SDS011;47850;50.274;18.908;2022-12-16T15:34:15;92.80;;;34.30;;
61897;SDS011;47850;50.274;18.908;2022-12-16T15:37:03;104.80;;;37.90;;
61897;SDS011;47850;50.274;18.908;2022-12-16T15:39:57;92.80;;;35.30;;
61897;SDS011;47850;50.274;18.908;2022-12-16T15:42:58;98.50;;;37.20;;
61897;SDS011;47850;50.274;18.908;2022-12-16T15:45:46;97.00;;;38.40;;
61897;SDS011;47850;50.274;18.908;2022-12-16T15:48:32;111.00;;;40.50;;
61897;SDS011;47850;50.274;18.908;2022-12-16T15:51:31;98.30;;;39.20;;
61897;SDS011;47850;50.274;18.908;2022-12-16T15:54:31;99.30;;;39.30;;
61897;SDS011;47850;50.274;18.908;2022-12-16T16:00:39;101.20;;;38.50;;
61897;SDS011;47850;50.274;18.908;2022-12-16T16:03:30;82.80;;;32.40;;
61897;SDS011;47850;50.274;18.908;2022-12-16T16:06:20;91.20;;;37.80;;
61897;SDS011;47850;50.274;18.908;2022-12-16T16:09:12;96.80;;;37.20;;
61897;SDS011;47850;50.274;18.908;2022-12-16T16:12:08;96.30;;;36.10;;
61897;SDS011;47850;50.274;18.908;2022-12-16T16:14:53;104.10;;;39.90;;
61897;SDS011;47850;50.274;18.908;2022-12-16T16:17:38;108.10;;;42.20;;
61897;SDS011;47850;50.274;18.908;2022-12-16T16:20:22;107.20;;;39.10;;
61897;SDS011;47850;50.274;18.908;2022-12-16T16:23:09;96.80;;;36.60;;
61897;SDS011;47850;50.274;18.908;2022-12-16T16:25:54;121.20;;;46.80;;
61897;SDS011;47850;50.274;18.908;2022-12-16T16:28:38;121.40;;;45.50;;
61897;SDS011;47850;50.274;18.908;2022-12-16T16:31:23;108.40;;;40.80;;
61897;SDS011;47850;50.274;18.908;2022-12-16T16:34:07;114.80;;;41.60;;
61897;SDS011;47850;50.274;18.908;2022-12-16T16:36:52;100.40;;;39.10;;
61897;SDS011;47850;50.274;18.908;2022-12-16T16:39:38;96.50;;;37.90;;
61897;SDS011;47850;50.274;18.908;2022-12-16T16:42:23;97.10;;;37.20;;
61897;SDS011;47850;50.274;18.908;2022-12-16T16:45:07;98.00;;;33.40;;
61897;SDS011;47850;50.274;18.908;2022-12-16T16:47:55;75.50;;;31.00;;
61897;SDS011;47850;50.274;18.908;2022-12-16T16:50:47;115.40;;;41.20;;
61897;SDS011;47850;50.274;18.908;2022-12-16T16:53:32;127.30;;;55.20;;
61897;SDS011;47850;50.274;18.908;2022-12-16T16:56:16;106.90;;;39.50;;
61897;SDS011;47850;50.274;18.908;2022-12-16T16:59:00;95.60;;;36.60;;
61897;SDS011;47850;50.274;18.908;2022-12-16T17:01:45;108.40;;;40.60;;
61897;SDS011;47850;50.274;18.908;2022-12-16T17:04:29;117.80;;;42.30;;
61897;SDS011;47850;50.274;18.908;2022-12-16T17:07:13;115.40;;;43.00;;
61897;SDS011;47850;50.274;18.908;2022-12-16T17:09:57;96.90;;;36.60;;
61897;SDS011;47850;50.274;18.908;2022-12-16T17:12:41;94.60;;;36.20;;
61897;SDS011;47850;50.274;18.908;2022-12-16T17:15:28;86.80;;;31.80;;
61897;SDS011;47850;50.274;18.908;2022-12-16T17:18:15;109.70;;;39.30;;
61897;SDS011;47850;50.274;18.908;2022-12-16T17:20:59;90.20;;;34.60;;
61897;SDS011;47850;50.274;18.908;2022-12-16T17:23:44;108.80;;;40.30;;
61897;SDS011;47850;50.274;18.908;2022-12-16T17:26:28;110.50;;;41.90;;
61897;SDS011;47850;50.274;18.908;2022-12-16T17:29:22;96.60;;;37.30;;
61897;SDS011;47850;50.274;18.908;2022-12-16T17:32:08;116.30;;;41.50;;
61897;SDS011;47850;50.274;18.908;2022-12-16T17:34:52;101.60;;;39.50;;
61897;SDS011;47850;50.274;18.908;2022-12-16T17:37:37;114.60;;;41.40;;
61897;SDS011;47850;50.274;18.908;2022-12-16T17:40:22;113.40;;;40.60;;
61897;SDS011;47850;50.274;18.908;2022-12-16T17:43:07;81.70;;;31.30;;
61897;SDS011;47850;50.274;18.908;2022-12-16T17:46:10;101.60;;;37.50;;
61897;SDS011;47850;50.274;18.908;2022-12-16T17:48:54;106.90;;;38.50;;
61897;SDS011;47850;50.274;18.908;2022-12-16T17:51:40;111.70;;;40.70;;